Time;durP1;ratioP1;P1;durP2;ratioP2;P2;SDS_P1;SDS_P2;PMS_P1;PMS_P2;Temp;Humidity;BMP_temperature;BMP_pressure;BME280_temperature;BME280_humidity;BME280_pressure;Samples;Min_cycle;Max_cycle;Signal;HPM_P1;HPM_P2
2021/04/10 00:01:09;;;;;;;6.10;2.57;;;17.00;54.60;;;;;;5124948;28;20934;-42
2021/04/10 00:03:42;;;;;;;2.40;2.20;;;17.10;54.30;;;;;;5124186;28;20493;-41
2021/04/10 00:06:12;;;;;;;2.40;2.20;;;17.20;53.70;;;;;;5125168;28;20451;-41
2021/04/10 00:08:42;;;;;;;3.10;2.27;;;17.00;54.60;;;;;;5125497;28;20508;-41
2021/04/10 00:11:12;;;;;;;3.07;2.70;;;16.80;55.30;;;;;;5125443;28;20456;-41
2021/04/10 00:13:42;;;;;;;2.63;2.30;;;16.50;55.60;;;;;;5124853;28;20494;-43
2021/04/10 00:16:12;;;;;;;3.90;2.83;;;16.60;55.20;;;;;;5118355;28;20451;-41
2021/04/10 00:18:44;;;;;;;2.83;2.53;;;16.50;56.20;;;;;;5125042;28;20502;-41
2021/04/10 00:21:14;;;;;;;3.13;2.00;;;16.40;56.40;;;;;;5124972;28;20494;-40
2021/04/10 00:23:44;;;;;;;4.40;2.03;;;16.50;55.80;;;;;;5124838;28;20502;-41
2021/04/10 00:26:15;;;;;;;2.40;2.07;;;16.60;55.10;;;;;;5118850;28;20451;-41
2021/04/10 00:28:47;;;;;;;3.00;2.00;;;16.70;56.00;;;;;;5123365;28;20460;-41
2021/04/10 00:31:18;;;;;;;2.70;2.50;;;16.70;56.00;;;;;;5120583;28;20489;-41
2021/04/10 00:33:49;;;;;;;2.23;2.03;;;16.70;55.90;;;;;;5125069;28;20482;-42
2021/04/10 00:36:19;;;;;;;2.17;1.83;;;16.80;56.00;;;;;;5124634;28;20467;-43
2021/04/10 00:38:49;;;;;;;2.43;2.23;;;16.50;56.70;;;;;;5125113;28;20459;-44
2021/04/10 00:41:23;;;;;;;2.53;2.13;;;16.60;56.20;;;;;;5123890;28;20463;-42
2021/04/10 00:43:53;;;;;;;2.80;2.10;;;16.50;55.30;;;;;;5123972;28;20448;-41
2021/04/10 00:46:24;;;;;;;3.50;2.20;;;16.70;55.50;;;;;;5123961;28;20557;-43
2021/04/10 00:48:55;;;;;;;5.60;1.90;;;16.60;55.10;;;;;;5123772;28;20457;-42
2021/04/10 00:51:25;;;;;;;7.37;1.80;;;16.60;55.50;;;;;;5124247;28;20441;-43
2021/04/10 00:53:55;;;;;;;2.70;2.50;;;16.40;55.10;;;;;;5124078;28;20553;-43
2021/04/10 00:56:28;;;;;;;2.60;1.80;;;16.20;55.30;;;;;;5122756;28;20455;-43
2021/04/10 00:58:58;;;;;;;2.90;2.57;;;15.90;55.50;;;;;;5123975;28;20443;-41
2021/04/10 01:01:28;;;;;;;3.90;2.10;;;15.80;56.20;;;;;;5123706;28;20447;-43
2021/04/10 01:04:01;;;;;;;3.07;2.77;;;15.60;56.80;;;;;;5124629;28;20433;-43
2021/04/10 01:06:31;;;;;;;3.47;2.83;;;15.50;57.40;;;;;;5124244;28;20451;-44
2021/04/10 01:09:01;;;;;;;3.77;1.90;;;15.40;57.00;;;;;;5123862;28;20445;-41
2021/04/10 01:11:40;;;;;;;3.10;1.97;;;15.30;57.60;;;;;;5122542;28;20549;-41
2021/04/10 01:14:17;;;;;;;2.30;2.00;;;15.20;58.00;;;;;;5122203;28;20482;-39
2021/04/10 01:16:54;;;;;;;4.20;2.20;;;15.00;57.70;;;;;;5123284;28;20477;-42
2021/04/10 01:19:44;;;;;;;2.50;1.47;;;14.70;58.10;;;;;;5123438;28;20460;-41
2021/04/10 01:22:23;;;;;;;2.93;2.67;;;14.50;58.40;;;;;;5118795;28;20438;-42
2021/04/10 01:25:01;;;;;;;2.50;2.30;;;14.60;59.20;;;;;;5124512;28;20437;-42
2021/04/10 01:27:39;;;;;;;3.00;2.70;;;14.50;58.80;;;;;;5123227;28;20446;-42
2021/04/10 01:30:14;;;;;;;2.43;2.23;;;14.40;59.20;;;;;;5122624;28;20597;-42
2021/04/10 01:32:50;;;;;;;3.10;2.20;;;14.30;59.70;;;;;;5123320;28;20453;-42
2021/04/10 01:35:24;;;;;;;3.33;2.53;;;14.10;59.10;;;;;;5124320;28;20481;-43
2021/04/10 01:37:57;;;;;;;2.30;2.10;;;14.00;59.20;;;;;;5123276;28;20480;-43
2021/04/10 01:40:31;;;;;;;2.40;2.20;;;13.90;59.20;;;;;;5122381;28;20453;-43
2021/04/10 01:43:02;;;;;;;3.37;1.90;;;13.70;60.00;;;;;;5116386;28;20777;-43
2021/04/10 01:45:35;;;;;;;2.53;1.90;;;13.50;59.50;;;;;;5123495;28;20473;-42
2021/04/10 01:48:08;;;;;;;2.73;2.53;;;13.40;60.10;;;;;;5122175;28;20572;-42
2021/04/10 01:50:41;;;;;;;3.10;2.23;;;13.30;60.30;;;;;;5123262;28;20460;-42
2021/04/10 01:53:13;;;;;;;3.80;2.10;;;13.30;61.10;;;;;;5123243;28;20449;-42
2021/04/10 01:55:47;;;;;;;3.40;1.90;;;13.30;61.80;;;;;;5123453;28;20473;-42
2021/04/10 01:58:18;;;;;;;3.07;1.90;;;13.20;61.40;;;;;;5122300;28;20437;-42
2021/04/10 02:00:50;;;;;;;2.33;1.80;;;13.20;61.90;;;;;;5120630;28;20453;-43
2021/04/10 02:03:21;;;;;;;3.90;1.83;;;13.00;61.10;;;;;;5108840;28;20986;-43
2021/04/10 02:05:52;;;;;;;3.40;1.90;;;13.00;61.30;;;;;;5114830;28;20460;-43
2021/04/10 02:08:25;;;;;;;6.27;2.13;;;12.90;60.20;;;;;;5122978;28;20457;-41
2021/04/10 02:10:55;;;;;;;2.30;2.07;;;12.70;61.30;;;;;;5122364;28;20522;-41
2021/04/10 02:13:26;;;;;;;2.23;1.73;;;12.70;61.30;;;;;;5118481;28;20456;-42
2021/04/10 02:15:57;;;;;;;3.10;1.70;;;12.60;63.70;;;;;;5122040;28;20931;-42
2021/04/10 02:18:28;;;;;;;4.57;2.20;;;12.50;64.40;;;;;;5122774;28;20470;-42
2021/04/10 02:21:00;;;;;;;2.17;1.77;;;12.50;65.70;;;;;;5122882;28;20456;-41
2021/04/10 02:23:30;;;;;;;3.80;2.60;;;12.40;67.20;;;;;;5108238;28;20935;-41
2021/04/10 02:26:02;;;;;;;4.60;2.27;;;12.20;68.80;;;;;;5121888;28;20447;-42
2021/04/10 02:28:32;;;;;;;3.00;2.10;;;12.10;69.60;;;;;;5122347;28;20448;-42
2021/04/10 02:31:05;;;;;;;5.53;2.20;;;11.90;70.70;;;;;;5121995;28;20449;-43
2021/04/10 02:33:41;;;;;;;2.50;2.30;;;11.80;71.50;;;;;;5122806;28;20458;-43
2021/04/10 02:36:16;;;;;;;2.13;1.80;;;11.70;72.00;;;;;;5122944;28;20509;-43
2021/04/10 02:38:51;;;;;;;3.43;2.33;;;11.60;72.50;;;;;;5123177;28;20503;-41
2021/04/10 02:41:25;;;;;;;3.73;2.40;;;11.60;73.20;;;;;;5120609;28;20451;-40
2021/04/10 02:43:57;;;;;;;1.75;1.60;;;11.60;74.10;;;;;;5121732;28;20501;-40
2021/04/10 02:46:36;;;;;;;2.20;2.00;;;11.50;74.10;;;;;;5121973;28;20194;-43
2021/04/10 02:49:10;;;;;;;2.90;2.50;;;11.50;75.70;;;;;;5122698;28;20468;-42
2021/04/10 02:51:43;;;;;;;3.30;2.00;;;11.50;75.00;;;;;;5122142;28;20452;-41
2021/04/10 02:54:18;;;;;;;5.82;3.28;;;11.40;74.60;;;;;;5122842;28;20483;-42
2021/04/10 02:57:02;;;;;;;2.90;2.13;;;11.30;75.80;;;;;;5121773;28;20201;-42
2021/04/10 02:59:40;;;;;;;2.33;2.13;;;11.00;76.00;;;;;;5122388;28;20191;-42
2021/04/10 03:02:24;;;;;;;3.50;2.70;;;11.00;77.90;;;;;;5121298;28;20440;-42
2021/04/10 03:04:55;;;;;;;3.20;2.80;;;11.10;78.00;;;;;;5117214;28;20491;-42
2021/04/10 03:07:26;;;;;;;4.15;3.85;;;11.00;78.80;;;;;;5122420;28;20595;-42
2021/04/10 03:10:04;;;;;;;4.68;4.28;;;11.00;78.50;;;;;;5122215;28;20213;-42
2021/04/10 03:12:51;;;;;;;3.20;2.70;;;11.00;79.10;;;;;;5120770;28;20203;-42
2021/04/10 03:15:25;;;;;;;3.72;3.40;;;11.00;84.20;;;;;;5121777;28;20480;-42
2021/04/10 03:18:05;;;;;;;5.72;4.53;;;11.00;83.20;;;;;;5123647;28;20278;-43
2021/04/10 03:20:50;;;;;;;3.78;2.72;;;11.00;83.90;;;;;;5124112;28;20198;-42
2021/04/10 03:23:24;;;;;;;2.53;1.98;;;10.90;82.30;;;;;;5125408;28;20210;-42
2021/04/10 03:25:57;;;;;;;3.65;2.67;;;10.80;83.50;;;;;;5125571;28;20257;-42
2021/04/10 03:28:30;;;;;;;3.55;3.25;;;10.80;82.40;;;;;;5125287;28;20208;-42
2021/04/10 03:31:02;;;;;;;3.45;3.13;;;10.70;83.30;;;;;;5125977;28;20197;-42
2021/04/10 03:33:34;;;;;;;4.28;3.40;;;10.80;82.90;;;;;;5125550;28;20233;-42
2021/04/10 03:36:05;;;;;;;2.90;2.60;;;10.80;84.40;;;;;;5109415;28;20277;-41
2021/04/10 03:38:36;;;;;;;3.15;2.22;;;10.70;84.70;;;;;;5114123;28;20267;-43
2021/04/10 03:41:07;;;;;;;3.00;2.80;;;10.60;85.40;;;;;;5125471;28;20197;-42
2021/04/10 03:43:38;;;;;;;2.72;2.53;;;10.70;84.70;;;;;;5125072;28;20281;-43
2021/04/10 03:46:09;;;;;;;4.88;3.35;;;10.60;87.00;;;;;;5121490;28;20225;-42
2021/04/10 03:48:40;;;;;;;2.60;2.40;;;10.60;85.60;;;;;;5124632;28;20232;-41
2021/04/10 03:51:10;;;;;;;3.67;2.40;;;10.50;86.10;;;;;;5124172;28;20196;-42
2021/04/10 03:53:40;;;;;;;2.65;2.45;;;10.50;87.90;;;;;;5125723;28;20254;-43
2021/04/10 03:56:10;;;;;;;3.15;2.55;;;10.50;87.50;;;;;;5125401;28;20284;-42
2021/04/10 03:58:43;;;;;;;2.60;2.40;;;10.50;87.50;;;;;;5124352;28;20211;-42
2021/04/10 04:01:24;;;;;;;3.92;2.25;;;10.50;87.50;;;;;;5125565;28;20208;-43
2021/04/10 04:04:13;;;;;;;6.25;2.67;;;10.50;88.50;;;;;;5125351;28;20204;-43
2021/04/10 04:07:04;;;;;;;5.38;2.75;;;10.40;87.60;;;;;;5125175;28;20205;-42
2021/04/10 04:09:41;;;;;;;2.90;2.35;;;10.30;88.40;;;;;;5124794;28;20195;-42
2021/04/10 04:12:14;;;;;;;4.25;2.70;;;10.30;90.00;;;;;;5123543;28;20197;-42
2021/04/10 04:14:47;;;;;;;2.97;1.98;;;10.30;89.80;;;;;;5109317;28;20217;-42
2021/04/10 04:17:21;;;;;;;2.90;2.60;;;10.30;90.00;;;;;;5124890;28;20362;-41
2021/04/10 04:19:58;;;;;;;2.53;2.33;;;10.20;90.40;;;;;;5121282;28;20660;-42
2021/04/10 04:22:39;;;;;;;4.82;2.72;;;10.20;91.00;;;;;;5121499;28;20532;-42
2021/04/10 04:25:21;;;;;;;3.22;2.20;;;10.10;91.00;;;;;;5125123;28;20247;-42
2021/04/10 04:27:55;;;;;;;3.95;2.67;;;10.20;91.20;;;;;;5123541;28;20203;-42
2021/04/10 04:30:30;;;;;;;2.83;2.20;;;10.20;90.80;;;;;;5124383;28;20185;-42
2021/04/10 04:33:06;;;;;;;2.45;2.10;;;10.20;91.30;;;;;;5123063;28;20646;-42
2021/04/10 04:35:42;;;;;;;3.95;2.50;;;10.20;91.40;;;;;;5123485;28;20225;-41
2021/04/10 04:38:17;;;;;;;3.05;2.53;;;10.30;91.20;;;;;;5124136;28;20256;-42
2021/04/10 04:40:54;;;;;;;2.65;2.28;;;10.30;91.20;;;;;;5123101;28;20217;-42
2021/04/10 04:43:27;;;;;;;2.20;2.00;;;10.20;92.00;;;;;;5123017;28;20226;-42
2021/04/10 04:45:57;;;;;;;2.97;2.55;;;10.20;91.80;;;;;;5121684;28;20258;-43
2021/04/10 04:48:27;;;;;;;3.05;2.35;;;10.20;91.90;;;;;;5123547;28;20196;-42
2021/04/10 04:51:06;;;;;;;3.45;2.70;;;10.20;92.10;;;;;;5122170;28;20230;-42
2021/04/10 04:53:48;;;;;;;4.00;2.50;;;10.20;92.70;;;;;;5116107;28;20199;-42
2021/04/10 04:56:21;;;;;;;5.03;4.00;;;10.10;92.50;;;;;;5123076;28;20307;-42
2021/04/10 04:58:55;;;;;;;6.07;4.40;;;10.20;92.60;;;;;;5123721;28;20589;-42
2021/04/10 05:01:50;;;;;;;3.47;3.00;;;10.20;92.40;;;;;;5122922;28;20230;-42
2021/04/10 05:04:25;;;;;;;3.05;2.40;;;10.20;91.90;;;;;;5123469;28;20196;-41
2021/04/10 05:07:01;;;;;;;2.92;2.60;;;10.20;92.40;;;;;;5123724;28;20530;-42
2021/04/10 05:09:35;;;;;;;3.28;2.58;;;10.20;92.00;;;;;;5123415;28;20230;-42
2021/04/10 05:12:09;;;;;;;3.33;2.10;;;10.20;92.40;;;;;;5123041;28;20209;-42
2021/04/10 05:14:47;;;;;;;2.95;2.38;;;10.20;92.40;;;;;;5123727;28;20228;-42
2021/04/10 05:17:24;;;;;;;4.18;2.50;;;10.20;93.10;;;;;;5122851;28;20193;-42
2021/04/10 05:20:03;;;;;;;3.20;2.42;;;10.10;93.00;;;;;;5123612;28;20560;-41
2021/04/10 05:22:45;;;;;;;2.63;2.42;;;10.20;93.60;;;;;;5123218;28;20294;-42
2021/04/10 05:25:20;;;;;;;2.20;2.10;;;10.10;93.60;;;;;;5123302;28;20230;-42
2021/04/10 05:27:54;;;;;;;4.20;2.50;;;10.00;94.00;;;;;;5122805;28;20250;-42
2021/04/10 05:30:42;;;;;;;4.70;2.60;;;10.00;93.70;;;;;;5120612;28;20249;-42
2021/04/10 05:33:19;;;;;;;2.65;2.00;;;9.90;94.40;;;;;;5122633;28;20245;-43
2021/04/10 05:35:53;;;;;;;3.33;2.42;;;9.90;94.90;;;;;;5123347;28;20584;-42
2021/04/10 05:38:29;;;;;;;2.97;2.25;;;9.90;94.70;;;;;;5122775;28;20212;-43
2021/04/10 05:41:04;;;;;;;2.67;2.28;;;9.90;95.50;;;;;;5119420;28;20230;-42
2021/04/10 05:43:44;;;;;;;2.35;2.15;;;9.90;95.90;;;;;;5122679;28;20204;-41
2021/04/10 05:46:18;;;;;;;2.33;2.10;;;9.90;95.80;;;;;;5122672;28;20200;-39
2021/04/10 05:48:53;;;;;;;3.90;2.10;;;9.90;95.80;;;;;;5120282;28;20220;-40
2021/04/10 05:51:25;;;;;;;4.95;2.30;;;9.80;96.20;;;;;;5122335;28;20207;-41
2021/04/10 05:54:01;;;;;;;2.80;2.55;;;9.80;96.10;;;;;;5122645;28;20206;-41
2021/04/10 05:56:37;;;;;;;4.10;3.72;;;9.80;96.00;;;;;;5122518;28;20204;-39
2021/04/10 05:59:12;;;;;;;3.35;3.03;;;9.70;96.10;;;;;;5122128;28;20184;-41
2021/04/10 06:01:42;;;;;;;6.78;3.20;;;9.70;96.90;;;;;;5120246;28;20188;-41
2021/04/10 06:04:17;;;;;;;4.78;2.47;;;9.70;96.70;;;;;;5123058;28;20257;-39
2021/04/10 06:06:56;;;;;;;3.95;2.30;;;9.70;96.80;;;;;;5122514;28;20200;-39
2021/04/10 06:09:28;;;;;;;4.47;2.45;;;9.60;96.80;;;;;;5123213;28;20543;-40
2021/04/10 06:11:58;;;;;;;3.40;2.40;;;9.60;97.10;;;;;;5121942;28;20199;-40
2021/04/10 06:14:30;;;;;;;5.25;2.50;;;9.60;97.80;;;;;;5122653;28;20192;-41
2021/04/10 06:17:00;;;;;;;5.85;2.47;;;9.60;98.00;;;;;;5123198;28;20264;-41
2021/04/10 06:19:39;;;;;;;4.75;2.95;;;9.60;98.10;;;;;;5122328;28;20200;-41
2021/04/10 06:22:24;;;;;;;3.10;2.60;;;9.60;99.30;;;;;;5122833;28;20204;-41
2021/04/10 06:24:55;;;;;;;4.30;2.70;;;9.60;99.00;;;;;;5122360;28;20207;-41
2021/04/10 06:27:25;;;;;;;3.03;2.40;;;9.60;99.50;;;;;;5122301;28;20265;-41
2021/04/10 06:30:00;;;;;;;3.78;3.03;;;9.60;99.80;;;;;;5123153;28;20203;-41
2021/04/10 06:32:31;;;;;;;3.05;2.60;;;9.60;99.90;;;;;;5123237;28;20579;-41
2021/04/10 06:35:08;;;;;;;6.35;2.70;;;9.60;99.90;;;;;;5123116;28;20219;-41
2021/04/10 06:37:49;;;;;;;3.30;2.60;;;9.50;99.90;;;;;;5121927;28;20282;-41
2021/04/10 06:40:33;;;;;;;2.88;2.28;;;9.40;99.90;;;;;;5114585;28;20288;-41
2021/04/10 06:43:03;;;;;;;4.07;3.08;;;9.30;99.90;;;;;;5121139;28;20292;-41
2021/04/10 06:45:34;;;;;;;2.95;2.40;;;9.40;99.90;;;;;;5122383;28;20276;-39
2021/04/10 06:48:14;;;;;;;5.43;3.08;;;9.40;99.90;;;;;;5120404;28;20199;-41
2021/04/10 06:50:45;;;;;;;2.92;2.63;;;9.40;99.90;;;;;;5122707;28;20226;-41
2021/04/10 06:53:22;;;;;;;6.40;2.40;;;9.40;99.90;;;;;;5125948;28;20204;-37
2021/04/10 06:56:03;;;;;;;3.05;2.75;;;9.30;99.90;;;;;;5124653;28;20231;-41
2021/04/10 06:58:48;;;;;;;5.40;2.85;;;9.40;99.90;;;;;;5125451;28;20214;-40
2021/04/10 07:01:19;;;;;;;3.25;2.63;;;9.30;99.90;;;;;;5126331;28;20196;-39
2021/04/10 07:03:57;;;;;;;4.30;2.30;;;9.30;99.90;;;;;;5121471;28;20199;-42
2021/04/10 07:06:31;;;;;;;6.65;3.13;;;9.20;99.90;;;;;;5124082;28;20201;-40
2021/04/10 07:09:01;;;;;;;2.83;2.63;;;9.20;99.90;;;;;;5127354;28;20192;-40
2021/04/10 07:11:55;;;;;;;4.03;3.58;;;9.20;99.90;;;;;;5126013;28;20214;-42
2021/04/10 07:14:25;;;;;;;3.10;2.58;;;9.20;99.90;;;;;;5125668;28;20261;-40
2021/04/10 07:16:58;;;;;;;6.50;3.08;;;9.10;99.90;;;;;;5125887;28;20196;-40
2021/04/10 07:19:29;;;;;;;6.72;3.15;;;9.20;99.90;;;;;;5126745;28;20196;-41
2021/04/10 07:22:06;;;;;;;3.58;3.10;;;9.20;99.90;;;;;;5125543;28;20211;-40
2021/04/10 07:24:42;;;;;;;4.10;2.60;;;9.20;99.90;;;;;;5125701;28;20257;-42
2021/04/10 07:27:16;;;;;;;3.63;2.55;;;9.20;99.90;;;;;;5125926;28;20196;-41
2021/04/10 07:29:47;;;;;;;3.45;2.95;;;9.20;99.90;;;;;;5126034;28;20204;-41
2021/04/10 07:32:28;;;;;;;4.50;3.10;;;9.20;99.90;;;;;;5125943;28;20271;-41
2021/04/10 07:34:59;;;;;;;5.05;3.30;;;9.20;99.90;;;;;;5125863;28;20211;-39
2021/04/10 07:37:35;;;;;;;4.15;3.25;;;9.20;99.90;;;;;;5112010;28;20208;-40
2021/04/10 07:40:09;;;;;;;7.18;4.00;;;9.10;99.90;;;;;;5126242;28;20229;-42
2021/04/10 07:42:42;;;;;;;3.35;2.95;;;9.10;99.90;;;;;;5120947;28;20289;-40
2021/04/10 07:45:28;;;;;;;4.10;3.05;;;9.00;99.90;;;;;;5125965;28;20284;-40
2021/04/10 07:48:19;;;;;;;5.68;4.00;;;9.00;99.90;;;;;;5125191;28;20214;-41
2021/04/10 07:50:56;;;;;;;4.95;3.63;;;8.90;99.90;;;;;;5125878;28;20276;-42
2021/04/10 07:53:28;;;;;;;3.42;2.90;;;8.80;99.90;;;;;;5122318;28;20196;-42
2021/04/10 07:56:00;;;;;;;4.50;3.55;;;8.90;99.90;;;;;;5125304;28;20225;-41
2021/04/10 07:58:32;;;;;;;4.00;3.15;;;8.90;99.90;;;;;;5124879;28;20199;-41
2021/04/10 08:01:04;;;;;;;7.88;3.33;;;8.90;99.90;;;;;;5124953;28;20241;-41
2021/04/10 08:03:35;;;;;;;5.00;3.10;;;8.90;99.90;;;;;;5119379;28;20283;-41
2021/04/10 08:06:18;;;;;;;3.35;2.83;;;8.90;99.90;;;;;;5117799;28;20239;-41
2021/04/10 08:08:53;;;;;;;3.63;2.95;;;8.90;99.90;;;;;;5125676;28;20204;-41
2021/04/10 08:11:37;;;;;;;4.43;3.47;;;8.90;99.90;;;;;;5124105;28;20200;-40
2021/04/10 08:14:10;;;;;;;3.35;2.70;;;8.90;99.90;;;;;;5124983;28;20192;-41
2021/04/10 08:16:40;;;;;;;2.88;2.67;;;9.00;99.90;;;;;;5124489;28;20224;-41
2021/04/10 08:19:10;;;;;;;3.97;3.30;;;9.00;99.90;;;;;;5125500;28;20189;-42
2021/04/10 08:21:46;;;;;;;4.45;3.20;;;9.00;99.90;;;;;;5124397;28;20241;-39
2021/04/10 08:24:28;;;;;;;3.30;2.40;;;9.00;99.90;;;;;;5124869;28;20309;-41
2021/04/10 08:26:59;;;;;;;4.00;3.13;;;9.00;99.90;;;;;;5123905;28;20207;-37
2021/04/10 08:29:31;;;;;;;6.90;3.40;;;9.00;99.90;;;;;;5124731;28;20204;-40
2021/04/10 08:32:02;;;;;;;3.15;2.85;;;9.00;99.90;;;;;;5116444;28;20204;-40
2021/04/10 08:34:33;;;;;;;3.05;2.55;;;9.00;99.90;;;;;;5124870;28;20252;-40
2021/04/10 08:37:05;;;;;;;3.95;3.00;;;8.90;99.90;;;;;;5124618;28;20207;-42
2021/04/10 08:39:38;;;;;;;6.68;3.05;;;8.90;99.90;;;;;;5124455;28;20268;-41
2021/04/10 08:42:12;;;;;;;3.75;3.47;;;8.80;99.90;;;;;;5123471;28;20199;-41
2021/04/10 08:44:47;;;;;;;3.00;2.80;;;8.80;99.90;;;;;;5124314;28;20253;-41
2021/04/10 08:47:20;;;;;;;4.45;3.05;;;8.70;99.90;;;;;;5123830;28;20289;-41
2021/04/10 08:49:51;;;;;;;3.03;2.72;;;8.70;99.90;;;;;;5124695;28;20207;-41
2021/04/10 08:52:29;;;;;;;3.28;3.00;;;8.70;99.90;;;;;;5124404;28;20241;-42
2021/04/10 08:55:05;;;;;;;3.08;2.63;;;8.80;99.90;;;;;;5124852;28;20211;-40
2021/04/10 08:57:39;;;;;;;3.15;2.15;;;8.70;99.90;;;;;;5123417;28;20199;-40
2021/04/10 09:00:22;;;;;;;2.85;2.60;;;8.60;99.90;;;;;;5123887;28;20252;-40
2021/04/10 09:02:54;;;;;;;3.70;3.40;;;8.50;99.90;;;;;;5123543;28;20200;-40
2021/04/10 09:05:25;;;;;;;5.32;2.75;;;8.40;99.90;;;;;;5124001;28;20307;-39
2021/04/10 09:08:04;;;;;;;3.17;2.58;;;8.40;99.90;;;;;;5124049;28;20207;-38
2021/04/10 09:10:51;;;;;;;2.72;2.53;;;8.40;99.90;;;;;;5119916;28;20184;-40
2021/04/10 09:13:40;;;;;;;3.95;2.92;;;8.40;99.90;;;;;;5123633;28;20655;-40
2021/04/10 09:16:29;;;;;;;4.18;2.90;;;8.50;99.90;;;;;;5120906;28;20295;-41
2021/04/10 09:19:05;;;;;;;4.43;3.10;;;8.40;99.90;;;;;;5123533;28;20605;-41
2021/04/10 09:21:41;;;;;;;3.55;3.30;;;8.40;99.90;;;;;;5123408;28;20237;-42
2021/04/10 09:24:25;;;;;;;3.60;3.30;;;8.50;99.90;;;;;;5124016;28;20203;-42
2021/04/10 09:27:07;;;;;;;4.70;3.50;;;8.50;99.90;;;;;;5122690;28;20215;-42
2021/04/10 09:30:01;;;;;;;4.57;3.58;;;8.50;99.90;;;;;;5123240;28;20202;-40
2021/04/10 09:32:40;;;;;;;4.45;3.50;;;8.50;99.90;;;;;;5116309;28;20204;-40
2021/04/10 09:35:13;;;;;;;5.82;3.67;;;8.50;99.90;;;;;;5124317;28;20207;-43
2021/04/10 09:37:47;;;;;;;3.60;3.00;;;8.50;99.90;;;;;;5122828;28;20204;-42
2021/04/10 09:40:21;;;;;;;4.15;2.92;;;8.50;99.90;;;;;;5123807;28;20196;-42
2021/04/10 09:42:53;;;;;;;6.57;3.65;;;8.60;99.90;;;;;;5122860;28;20283;-40
2021/04/10 09:45:31;;;;;;;4.05;3.65;;;8.60;99.90;;;;;;5123572;28;20232;-40
2021/04/10 09:48:22;;;;;;;4.43;3.15;;;8.60;99.90;;;;;;5122396;28;20196;-41
2021/04/10 09:51:06;;;;;;;3.90;3.38;;;8.70;99.90;;;;;;5122841;28;20192;-41
2021/04/10 09:53:36;;;;;;;4.10;3.55;;;8.70;99.90;;;;;;5123421;28;20236;-42
2021/04/10 09:56:11;;;;;;;4.28;3.88;;;8.70;99.90;;;;;;5123724;28;20307;-41
2021/04/10 09:58:43;;;;;;;4.20;3.90;;;8.60;99.90;;;;;;5121718;28;20207;-40
2021/04/10 10:01:16;;;;;;;4.32;3.92;;;8.50;99.90;;;;;;5123021;28;20203;-40
2021/04/10 10:03:49;;;;;;;4.65;3.60;;;8.50;99.90;;;;;;5122868;28;20200;-40
2021/04/10 10:06:25;;;;;;;4.75;4.35;;;8.50;99.90;;;;;;5123242;28;20306;-40
2021/04/10 10:08:55;;;;;;;4.35;3.65;;;8.40;99.90;;;;;;5119761;28;20196;-42
2021/04/10 10:11:25;;;;;;;5.00;3.50;;;8.30;99.90;;;;;;5119786;28;20203;-42
2021/04/10 10:13:59;;;;;;;5.72;3.83;;;8.30;99.90;;;;;;5122811;28;20296;-40
2021/04/10 10:16:30;;;;;;;8.20;4.22;;;8.20;99.90;;;;;;5122851;28;20290;-37
2021/04/10 10:19:03;;;;;;;3.72;3.42;;;8.20;99.90;;;;;;5122988;28;20211;-40
2021/04/10 10:21:33;;;;;;;5.63;3.70;;;8.20;99.90;;;;;;5122777;28;20204;-40
2021/04/10 10:24:03;;;;;;;4.75;3.20;;;8.20;99.90;;;;;;5123196;28;20268;-39
2021/04/10 10:26:38;;;;;;;5.55;3.97;;;8.20;99.90;;;;;;5123463;28;20850;-39
2021/04/10 10:29:10;;;;;;;6.45;3.92;;;8.30;99.90;;;;;;5126269;28;20199;-38
2021/04/10 10:31:44;;;;;;;6.43;3.55;;;8.20;99.90;;;;;;5127128;28;20640;-40
2021/04/10 10:34:16;;;;;;;3.90;3.55;;;8.20;99.90;;;;;;5120292;28;20195;-40
2021/04/10 10:36:47;;;;;;;5.72;4.40;;;8.20;99.90;;;;;;5126848;28;20249;-40
2021/04/10 10:39:29;;;;;;;6.70;3.85;;;8.20;99.90;;;;;;5127449;28;20546;-39
2021/04/10 10:42:00;;;;;;;4.22;3.35;;;8.10;99.90;;;;;;5126683;28;20192;-42
2021/04/10 10:44:34;;;;;;;5.03;3.85;;;8.10;99.90;;;;;;5127542;28;20231;-40
2021/04/10 10:47:07;;;;;;;5.88;4.35;;;8.00;99.90;;;;;;5126400;28;20195;-40
2021/04/10 10:49:38;;;;;;;4.50;4.05;;;7.90;99.90;;;;;;5126377;28;20562;-40
2021/04/10 10:52:17;;;;;;;5.18;4.65;;;7.80;99.90;;;;;;5117666;28;20195;-41
2021/04/10 10:54:48;;;;;;;4.40;4.00;;;7.70;99.90;;;;;;5122200;28;20240;-41
2021/04/10 10:57:19;;;;;;;4.50;4.10;;;7.60;99.90;;;;;;5125836;28;20199;-42
2021/04/10 11:00:09;;;;;;;5.10;4.25;;;7.60;99.90;;;;;;5126349;28;20210;-40
2021/04/10 11:02:40;;;;;;;4.45;3.95;;;7.50;99.90;;;;;;5126233;28;20238;-41
2021/04/10 11:05:12;;;;;;;4.30;3.90;;;7.50;99.90;;;;;;5127371;28;20228;-43
2021/04/10 11:07:44;;;;;;;6.07;4.40;;;7.50;99.90;;;;;;5126843;28;20196;-40
2021/04/10 11:10:16;;;;;;;4.30;3.40;;;7.50;99.90;;;;;;5117079;28;20192;-41
2021/04/10 11:12:46;;;;;;;4.93;3.80;;;7.50;99.90;;;;;;5126393;28;20195;-41
2021/04/10 11:15:18;;;;;;;6.75;3.08;;;7.50;99.90;;;;;;5127329;28;20215;-40
2021/04/10 11:17:47;;;;;;;4.10;3.67;;;7.40;99.90;;;;;;5126118;28;20333;-40
2021/04/10 11:20:34;;;;;;;3.83;3.35;;;7.40;99.90;;;;;;5126887;28;20219;-39
2021/04/10 11:23:06;;;;;;;4.43;3.22;;;7.40;99.90;;;;;;5117961;28;20227;-40
2021/04/10 11:25:50;;;;;;;4.70;4.20;;;7.40;99.90;;;;;;5126211;28;20216;-40
2021/04/10 11:28:31;;;;;;;5.65;4.10;;;7.30;99.90;;;;;;5125653;28;20278;-40
2021/04/10 11:31:08;;;;;;;4.57;3.92;;;7.30;99.90;;;;;;5126366;28;20667;-40
2021/04/10 11:33:39;;;;;;;4.68;4.32;;;7.20;99.90;;;;;;5121734;28;20241;-40
2021/04/10 11:36:10;;;;;;;5.30;4.50;;;7.30;99.90;;;;;;5126413;28;20247;-39
2021/04/10 11:39:05;;;;;;;4.60;4.10;;;7.30;99.90;;;;;;5125975;28;20227;-40
2021/04/10 11:41:47;;;;;;;4.28;3.42;;;7.30;99.90;;;;;;5125028;28;20210;-39
2021/04/10 11:44:18;;;;;;;4.00;3.60;;;7.30;99.90;;;;;;5114544;28;20235;-39
2021/04/10 11:46:49;;;;;;;4.70;3.75;;;7.30;99.90;;;;;;5124891;28;20208;-37
2021/04/10 11:49:28;;;;;;;5.20;4.45;;;7.40;99.90;;;;;;5124576;28;20192;-35
2021/04/10 11:52:10;;;;;;;8.02;4.30;;;7.40;99.90;;;;;;5126281;28;20192;-37
2021/04/10 11:54:40;;;;;;;6.75;4.63;;;7.50;99.90;;;;;;5125579;28;20652;-39
2021/04/10 11:57:28;;;;;;;6.38;4.13;;;7.60;99.90;;;;;;5124296;28;20247;-39
2021/04/10 12:00:04;;;;;;;5.07;4.57;;;7.70;99.90;;;;;;5126121;28;20537;-38
2021/04/10 12:02:39;;;;;;;4.25;3.95;;;7.80;99.90;;;;;;5123792;28;20212;-39
2021/04/10 12:05:27;;;;;;;4.70;4.20;;;7.70;99.90;;;;;;5125688;28;20253;-37
2021/04/10 12:08:12;;;;;;;4.63;4.00;;;7.60;99.90;;;;;;5125781;28;20260;-38
2021/04/10 12:10:45;;;;;;;4.85;4.45;;;7.60;99.90;;;;;;5125296;28;20196;-40
2021/04/10 12:13:16;;;;;;;6.45;4.65;;;7.60;99.90;;;;;;5125010;28;20624;-40
2021/04/10 12:15:51;;;;;;;6.68;4.65;;;7.50;99.90;;;;;;5125006;28;20716;-40
2021/04/10 12:18:22;;;;;;;4.28;3.97;;;7.50;99.90;;;;;;5124990;28;20286;-40
2021/04/10 12:20:53;;;;;;;4.50;2.80;;;7.60;99.90;;;;;;5125595;28;20357;-40
2021/04/10 12:23:24;;;;;;;3.10;2.80;;;7.50;99.90;;;;;;5124713;28;20196;-38
2021/04/10 12:25:55;;;;;;;3.60;2.72;;;7.50;99.90;;;;;;5115891;28;20716;-40
2021/04/10 12:28:25;;;;;;;1.80;1.70;;;7.40;99.90;;;;;;5124259;28;20194;-39
2021/04/10 12:30:55;;;;;;;2.90;2.70;;;7.40;99.90;;;;;;5124629;28;20192;-39
2021/04/10 12:33:25;;;;;;;1.83;1.63;;;7.40;99.90;;;;;;5124094;28;20200;-40
2021/04/10 12:35:58;;;;;;;2.10;1.73;;;7.40;99.90;;;;;;5124581;28;20215;-40
2021/04/10 12:38:29;;;;;;;1.90;1.50;;;7.50;99.90;;;;;;5119839;28;20297;-37
2021/04/10 12:40:59;;;;;;;1.73;1.20;;;7.60;99.90;;;;;;5125404;28;20196;-39
2021/04/10 12:43:29;;;;;;;5.00;1.20;;;7.50;99.90;;;;;;5124297;28;20200;-39
2021/04/10 12:46:03;;;;;;;1.35;1.25;;;7.60;99.90;;;;;;5124066;28;20234;-35
2021/04/10 12:48:33;;;;;;;1.50;1.00;;;7.60;99.90;;;;;;5124098;28;20231;-39
2021/04/10 12:51:03;;;;;;;1.73;1.33;;;7.50;99.90;;;;;;5118079;28;20634;-40
2021/04/10 12:53:34;;;;;;;2.08;1.40;;;7.50;99.90;;;;;;5123748;28;20317;-40
2021/04/10 12:56:05;;;;;;;2.60;1.67;;;7.50;99.90;;;;;;5124689;28;20215;-39
2021/04/10 12:58:36;;;;;;;2.40;1.13;;;7.50;99.90;;;;;;5123948;28;20251;-37
2021/04/10 13:01:07;;;;;;;1.40;1.30;;;7.50;99.90;;;;;;5117827;28;20272;-40
2021/04/10 13:03:37;;;;;;;1.80;1.42;;;7.50;99.90;;;;;;5123562;28;20204;-40
2021/04/10 13:06:08;;;;;;;2.28;1.20;;;7.50;99.90;;;;;;5124480;28;20200;-39
2021/04/10 13:08:39;;;;;;;1.75;1.25;;;7.50;99.90;;;;;;5124451;28;20196;-39
2021/04/10 13:11:09;;;;;;;2.17;1.20;;;7.50;99.90;;;;;;5124606;28;20198;-37
2021/04/10 13:13:39;;;;;;;1.52;1.17;;;7.50;99.90;;;;;;5122723;28;20200;-39
2021/04/10 13:16:09;;;;;;;1.48;1.38;;;7.50;99.90;;;;;;5124296;28;20273;-39
2021/04/10 13:18:39;;;;;;;1.95;1.25;;;7.40;99.90;;;;;;5124117;28;20196;-40
2021/04/10 13:21:09;;;;;;;1.48;1.02;;;7.30;99.90;;;;;;5121221;28;20196;-37
2021/04/10 13:23:40;;;;;;;1.30;1.02;;;7.20;99.90;;;;;;5123306;28;20218;-39
2021/04/10 13:26:10;;;;;;;1.95;1.40;;;7.20;99.90;;;;;;5123948;28;20611;-40
2021/04/10 13:28:42;;;;;;;1.58;0.90;;;7.10;99.90;;;;;;5123739;28;20226;-37
2021/04/10 13:31:12;;;;;;;1.67;1.10;;;7.00;99.90;;;;;;5122484;28;20214;-40